sensor_id;sensor_type;location;lat;lon;timestamp;temperature;humidity
6756;DHT22;3415;51.148;7.014;2022-09-01T06:01:33;19.90;99.90
6756;DHT22;3415;51.148;7.014;2022-09-01T06:04:04;19.90;99.90
6756;DHT22;3415;51.148;7.014;2022-09-01T06:06:36;20.40;99.90
6756;DHT22;3415;51.148;7.014;2022-09-01T06:09:07;20.60;99.90
6756;DHT22;3415;51.148;7.014;2022-09-01T06:11:35;20.90;99.90
6756;DHT22;3415;51.148;7.014;2022-09-01T06:14:02;20.90;99.90
6756;DHT22;3415;51.148;7.014;2022-09-01T06:16:30;21.10;99.90
6756;DHT22;3415;51.148;7.014;2022-09-01T06:18:59;21.50;99.90
6756;DHT22;3415;51.148;7.014;2022-09-01T06:21:26;21.70;99.90
6756;DHT22;3415;51.148;7.014;2022-09-01T06:23:55;21.90;99.90
6756;DHT22;3415;51.148;7.014;2022-09-01T06:26:25;22.20;99.90
6756;DHT22;3415;51.148;7.014;2022-09-01T06:28:52;22.50;99.90
6756;DHT22;3415;51.148;7.014;2022-09-01T06:31:19;23.40;99.90
6756;DHT22;3415;51.148;7.014;2022-09-01T06:33:48;23.40;99.90
6756;DHT22;3415;51.148;7.014;2022-09-01T06:36:20;23.40;99.90
6756;DHT22;3415;51.148;7.014;2022-09-01T06:38:49;23.50;99.90
6756;DHT22;3415;51.148;7.014;2022-09-01T06:41:18;23.80;99.90
6756;DHT22;3415;51.148;7.014;2022-09-01T06:43:45;23.90;99.90
6756;DHT22;3415;51.148;7.014;2022-09-01T06:46:14;24.30;99.90
6756;DHT22;3415;51.148;7.014;2022-09-01T06:48:42;24.70;99.90
6756;DHT22;3415;51.148;7.014;2022-09-01T06:51:13;25.50;99.90
6756;DHT22;3415;51.148;7.014;2022-09-01T06:53:43;25.50;99.90
6756;DHT22;3415;51.148;7.014;2022-09-01T06:56:11;25.50;99.90
6756;DHT22;3415;51.148;7.014;2022-09-01T06:58:39;25.20;99.90
6756;DHT22;3415;51.148;7.014;2022-09-01T07:01:10;25.40;99.90
6756;DHT22;3415;51.148;7.014;2022-09-01T07:03:39;26.00;99.90
6756;DHT22;3415;51.148;7.014;2022-09-01T07:06:07;26.20;99.90
6756;DHT22;3415;51.148;7.014;2022-09-01T07:08:34;26.20;99.90
6756;DHT22;3415;51.148;7.014;2022-09-01T07:11:06;26.00;99.90
6756;DHT22;3415;51.148;7.014;2022-09-01T07:13:33;26.40;99.90
6756;DHT22;3415;51.148;7.014;2022-09-01T07:16:02;26.60;99.90
6756;DHT22;3415;51.148;7.014;2022-09-01T07:18:31;26.80;99.90
6756;DHT22;3415;51.148;7.014;2022-09-01T07:20:59;27.10;99.90
6756;DHT22;3415;51.148;7.014;2022-09-01T07:23:32;27.40;99.90
6756;DHT22;3415;51.148;7.014;2022-09-01T07:25:58;28.30;99.90
6756;DHT22;3415;51.148;7.014;2022-09-01T07:28:27;28.50;99.90
6756;DHT22;3415;51.148;7.014;2022-09-01T07:30:57;28.80;99.90
6756;DHT22;3415;51.148;7.014;2022-09-01T07:33:25;28.90;99.90
6756;DHT22;3415;51.148;7.014;2022-09-01T07:35:52;29.40;99.90
6756;DHT22;3415;51.148;7.014;2022-09-01T07:38:22;29.90;99.90
6756;DHT22;3415;51.148;7.014;2022-09-01T07:40:50;29.90;99.90
6756;DHT22;3415;51.148;7.014;2022-09-01T07:43:20;30.30;99.90
6756;DHT22;3415;51.148;7.014;2022-09-01T07:45:52;30.60;99.90
6756;DHT22;3415;51.148;7.014;2022-09-01T07:48:21;30.80;99.90
6756;DHT22;3415;51.148;7.014;2022-09-01T07:50:51;30.80;99.90
6756;DHT22;3415;51.148;7.014;2022-09-01T07:53:20;31.20;99.90
6756;DHT22;3415;51.148;7.014;2022-09-01T07:55:48;31.30;99.90
6756;DHT22;3415;51.148;7.014;2022-09-01T07:58:17;31.40;99.90
6756;DHT22;3415;51.148;7.014;2022-09-01T08:00:45;30.80;99.90
6756;DHT22;3415;51.148;7.014;2022-09-01T08:03:13;30.20;99.90
6756;DHT22;3415;51.148;7.014;2022-09-01T08:05:40;29.60;99.90
6756;DHT22;3415;51.148;7.014;2022-09-01T08:08:07;29.60;99.90
6756;DHT22;3415;51.148;7.014;2022-09-01T08:10:37;30.50;99.90
6756;DHT22;3415;51.148;7.014;2022-09-01T08:13:05;31.70;99.90
6756;DHT22;3415;51.148;7.014;2022-09-01T08:15:32;32.60;99.90
6756;DHT22;3415;51.148;7.014;2022-09-01T08:17:59;33.60;99.90
6756;DHT22;3415;51.148;7.014;2022-09-01T08:20:27;33.00;99.90
6756;DHT22;3415;51.148;7.014;2022-09-01T08:22:54;33.70;99.90
6756;DHT22;3415;51.148;7.014;2022-09-01T08:25:21;33.80;99.90
6756;DHT22;3415;51.148;7.014;2022-09-01T08:27:48;34.10;99.90
6756;DHT22;3415;51.148;7.014;2022-09-01T08:30:16;34.70;99.90
6756;DHT22;3415;51.148;7.014;2022-09-01T08:32:43;34.90;99.90
6756;DHT22;3415;51.148;7.014;2022-09-01T08:35:10;34.80;99.90
6756;DHT22;3415;51.148;7.014;2022-09-01T08:37:39;34.90;99.90
6756;DHT22;3415;51.148;7.014;2022-09-01T08:40:07;34.50;99.90
6756;DHT22;3415;51.148;7.014;2022-09-01T08:42:46;34.60;99.90
6756;DHT22;3415;51.148;7.014;2022-09-01T08:45:21;35.00;99.90
6756;DHT22;3415;51.148;7.014;2022-09-01T08:47:51;36.00;99.90
6756;DHT22;3415;51.148;7.014;2022-09-01T08:50:20;35.50;99.90
6756;DHT22;3415;51.148;7.014;2022-09-01T08:52:55;35.70;99.90
6756;DHT22;3415;51.148;7.014;2022-09-01T08:55:33;35.40;99.90
6756;DHT22;3415;51.148;7.014;2022-09-01T08:58:03;34.90;99.90
6756;DHT22;3415;51.148;7.014;2022-09-01T09:00:37;35.00;99.90
6756;DHT22;3415;51.148;7.014;2022-09-01T09:03:15;35.00;99.90
6756;DHT22;3415;51.148;7.014;2022-09-01T09:06:04;35.10;99.90
6756;DHT22;3415;51.148;7.014;2022-09-01T09:08:52;36.40;99.90
6756;DHT22;3415;51.148;7.014;2022-09-01T09:11:36;35.60;99.90
6756;DHT22;3415;51.148;7.014;2022-09-01T09:14:12;35.70;99.90
6756;DHT22;3415;51.148;7.014;2022-09-01T09:16:42;36.10;99.90
6756;DHT22;3415;51.148;7.014;2022-09-01T09:19:13;35.40;99.90
6756;DHT22;3415;51.148;7.014;2022-09-01T09:21:44;35.10;99.90
6756;DHT22;3415;51.148;7.014;2022-09-01T09:24:20;35.70;99.90
6756;DHT22;3415;51.148;7.014;2022-09-01T09:26:49;36.20;99.90
6756;DHT22;3415;51.148;7.014;2022-09-01T09:29:16;36.20;99.90
6756;DHT22;3415;51.148;7.014;2022-09-01T09:31:45;35.80;99.90
6756;DHT22;3415;51.148;7.014;2022-09-01T09:34:17;35.30;99.90
6756;DHT22;3415;51.148;7.014;2022-09-01T09:36:51;35.40;99.90
6756;DHT22;3415;51.148;7.014;2022-09-01T09:39:20;35.40;99.90
6756;DHT22;3415;51.148;7.014;2022-09-01T09:42:03;35.20;99.90
6756;DHT22;3415;51.148;7.014;2022-09-01T09:44:32;33.30;99.90
6756;DHT22;3415;51.148;7.014;2022-09-01T09:46:59;31.50;99.90
6756;DHT22;3415;51.148;7.014;2022-09-01T09:49:28;30.40;99.90
6756;DHT22;3415;51.148;7.014;2022-09-01T09:52:10;30.20;99.90
6756;DHT22;3415;51.148;7.014;2022-09-01T09:54:57;31.60;99.90
6756;DHT22;3415;51.148;7.014;2022-09-01T09:57:25;33.90;99.90
6756;DHT22;3415;51.148;7.014;2022-09-01T09:59:57;35.50;99.90
6756;DHT22;3415;51.148;7.014;2022-09-01T10:02:30;36.70;99.90
6756;DHT22;3415;51.148;7.014;2022-09-01T10:04:59;37.70;99.90
6756;DHT22;3415;51.148;7.014;2022-09-01T10:07:31;38.20;99.90
6756;DHT22;3415;51.148;7.014;2022-09-01T10:10:02;38.30;99.90
6756;DHT22;3415;51.148;7.014;2022-09-01T10:12:30;38.40;99.90
6756;DHT22;3415;51.148;7.014;2022-09-01T10:15:00;39.50;99.90
6756;DHT22;3415;51.148;7.014;2022-09-01T10:17:30;39.20;99.90
6756;DHT22;3415;51.148;7.014;2022-09-01T10:20:02;36.30;99.90
6756;DHT22;3415;51.148;7.014;2022-09-01T10:22:31;37.50;99.90
6756;DHT22;3415;51.148;7.014;2022-09-01T10:25:00;35.50;99.90
6756;DHT22;3415;51.148;7.014;2022-09-01T10:27:29;36.20;99.90
6756;DHT22;3415;51.148;7.014;2022-09-01T10:30:03;36.00;99.90
6756;DHT22;3415;51.148;7.014;2022-09-01T10:32:33;31.30;99.90
6756;DHT22;3415;51.148;7.014;2022-09-01T10:35:03;31.30;99.90
6756;DHT22;3415;51.148;7.014;2022-09-01T10:37:31;30.30;99.90
6756;DHT22;3415;51.148;7.014;2022-09-01T10:40:36;31.70;99.90
6756;DHT22;3415;51.148;7.014;2022-09-01T10:43:24;32.00;99.90
6756;DHT22;3415;51.148;7.014;2022-09-01T10:45:53;34.20;99.90
6756;DHT22;3415;51.148;7.014;2022-09-01T10:48:30;34.60;99.90
6756;DHT22;3415;51.148;7.014;2022-09-01T10:54:02;32.90;99.90
6756;DHT22;3415;51.148;7.014;2022-09-01T10:56:38;33.50;99.90
6756;DHT22;3415;51.148;7.014;2022-09-01T10:59:08;34.90;99.90
6756;DHT22;3415;51.148;7.014;2022-09-01T11:05:10;34.70;99.90
6756;DHT22;3415;51.148;7.014;2022-09-01T11:07:38;34.50;99.90
6756;DHT22;3415;51.148;7.014;2022-09-01T11:10:22;32.50;99.90
6756;DHT22;3415;51.148;7.014;2022-09-01T11:15:45;30.40;99.90
6756;DHT22;3415;51.148;7.014;2022-09-01T11:18:15;30.40;99.90
6756;DHT22;3415;51.148;7.014;2022-09-01T11:20:44;32.70;99.90
6756;DHT22;3415;51.148;7.014;2022-09-01T11:23:21;33.80;99.90
6756;DHT22;3415;51.148;7.014;2022-09-01T11:25:50;32.00;99.90
6756;DHT22;3415;51.148;7.014;2022-09-01T11:31:31;34.60;99.90
6756;DHT22;3415;51.148;7.014;2022-09-01T11:34:06;35.20;99.90
6756;DHT22;3415;51.148;7.014;2022-09-01T11:36:37;36.70;99.90
6756;DHT22;3415;51.148;7.014;2022-09-01T11:39:23;36.90;99.90
6756;DHT22;3415;51.148;7.014;2022-09-01T11:41:57;38.50;99.90
6756;DHT22;3415;51.148;7.014;2022-09-01T11:44:28;39.50;99.90
6756;DHT22;3415;51.148;7.014;2022-09-01T11:47:02;36.90;99.90
6756;DHT22;3415;51.148;7.014;2022-09-01T11:49:32;34.60;99.90
6756;DHT22;3415;51.148;7.014;2022-09-01T11:52:00;31.70;99.90
6756;DHT22;3415;51.148;7.014;2022-09-01T11:54:31;29.50;99.90
6756;DHT22;3415;51.148;7.014;2022-09-01T11:57:17;28.10;99.90
6756;DHT22;3415;51.148;7.014;2022-09-01T12:02:18;33.30;99.90
6756;DHT22;3415;51.148;7.014;2022-09-01T12:04:48;35.70;99.90
6756;DHT22;3415;51.148;7.014;2022-09-01T12:07:29;36.50;99.90
6756;DHT22;3415;51.148;7.014;2022-09-01T12:09:57;36.20;99.90
6756;DHT22;3415;51.148;7.014;2022-09-01T12:12:31;34.60;99.90
6756;DHT22;3415;51.148;7.014;2022-09-01T12:15:01;31.80;99.90
6756;DHT22;3415;51.148;7.014;2022-09-01T12:17:29;30.80;99.90
6756;DHT22;3415;51.148;7.014;2022-09-01T12:20:18;30.10;99.90
6756;DHT22;3415;51.148;7.014;2022-09-01T12:22:45;29.70;99.90
6756;DHT22;3415;51.148;7.014;2022-09-01T12:25:18;28.80;99.90
6756;DHT22;3415;51.148;7.014;2022-09-01T12:27:47;28.30;99.90
6756;DHT22;3415;51.148;7.014;2022-09-01T12:30:14;28.20;99.90
6756;DHT22;3415;51.148;7.014;2022-09-01T12:32:43;27.50;99.90
6756;DHT22;3415;51.148;7.014;2022-09-01T12:35:15;26.70;99.90
6756;DHT22;3415;51.148;7.014;2022-09-01T12:37:44;26.70;99.90
6756;DHT22;3415;51.148;7.014;2022-09-01T12:40:22;27.10;99.90
6756;DHT22;3415;51.148;7.014;2022-09-01T12:42:51;26.70;99.90
6756;DHT22;3415;51.148;7.014;2022-09-01T12:45:37;26.70;99.90
6756;DHT22;3415;51.148;7.014;2022-09-01T12:48:06;26.70;99.90
6756;DHT22;3415;51.148;7.014;2022-09-01T12:50:42;26.60;99.90
6756;DHT22;3415;51.148;7.014;2022-09-01T12:53:28;26.50;99.90
6756;DHT22;3415;51.148;7.014;2022-09-01T12:56:09;26.60;99.90
6756;DHT22;3415;51.148;7.014;2022-09-01T12:58:43;26.60;99.90
6756;DHT22;3415;51.148;7.014;2022-09-01T13:01:26;26.70;99.90
6756;DHT22;3415;51.148;7.014;2022-09-01T13:04:14;26.70;99.90
6756;DHT22;3415;51.148;7.014;2022-09-01T13:06:41;26.70;99.90
6756;DHT22;3415;51.148;7.014;2022-09-01T13:11:35;27.40;99.90
6756;DHT22;3415;51.148;7.014;2022-09-01T13:14:02;27.30;99.90
6756;DHT22;3415;51.148;7.014;2022-09-01T13:16:29;27.30;99.90
6756;DHT22;3415;51.148;7.014;2022-09-01T13:18:56;27.10;99.90
6756;DHT22;3415;51.148;7.014;2022-09-01T13:21:24;27.00;99.90
6756;DHT22;3415;51.148;7.014;2022-09-01T13:23:52;26.50;99.90
6756;DHT22;3415;51.148;7.014;2022-09-01T13:26:18;26.20;99.90
6756;DHT22;3415;51.148;7.014;2022-09-01T13:28:45;26.00;99.90
6756;DHT22;3415;51.148;7.014;2022-09-01T13:31:13;25.70;99.90
6756;DHT22;3415;51.148;7.014;2022-09-01T13:33:39;25.80;99.90
6756;DHT22;3415;51.148;7.014;2022-09-01T13:36:07;25.90;99.90
6756;DHT22;3415;51.148;7.014;2022-09-01T13:38:35;26.00;99.90
6756;DHT22;3415;51.148;7.014;2022-09-01T13:43:30;26.40;99.90
6756;DHT22;3415;51.148;7.014;2022-09-01T13:45:57;26.70;99.90
6756;DHT22;3415;51.148;7.014;2022-09-01T13:48:24;27.00;99.90
6756;DHT22;3415;51.148;7.014;2022-09-01T13:50:53;27.30;99.90
6756;DHT22;3415;51.148;7.014;2022-09-01T13:53:20;27.30;99.90
6756;DHT22;3415;51.148;7.014;2022-09-01T13:55:49;27.10;99.90
6756;DHT22;3415;51.148;7.014;2022-09-01T13:58:16;26.70;99.90
6756;DHT22;3415;51.148;7.014;2022-09-01T14:00:44;26.30;99.90
6756;DHT22;3415;51.148;7.014;2022-09-01T14:03:14;26.10;99.90
6756;DHT22;3415;51.148;7.014;2022-09-01T14:05:45;25.90;99.90
6756;DHT22;3415;51.148;7.014;2022-09-01T14:08:14;25.90;99.90
6756;DHT22;3415;51.148;7.014;2022-09-01T14:10:43;25.80;99.90
6756;DHT22;3415;51.148;7.014;2022-09-01T14:13:13;25.60;99.90
6756;DHT22;3415;51.148;7.014;2022-09-01T14:15:40;25.50;99.90
6756;DHT22;3415;51.148;7.014;2022-09-01T14:18:07;25.50;99.90
6756;DHT22;3415;51.148;7.014;2022-09-01T14:20:36;25.40;99.90
6756;DHT22;3415;51.148;7.014;2022-09-01T14:23:05;25.40;99.90
6756;DHT22;3415;51.148;7.014;2022-09-01T14:25:32;25.30;99.90
6756;DHT22;3415;51.148;7.014;2022-09-01T14:27:59;25.30;99.90
6756;DHT22;3415;51.148;7.014;2022-09-01T14:30:30;25.40;99.90
6756;DHT22;3415;51.148;7.014;2022-09-01T14:32:58;25.50;99.90
6756;DHT22;3415;51.148;7.014;2022-09-01T14:35:26;25.50;99.90
6756;DHT22;3415;51.148;7.014;2022-09-01T14:37:54;25.50;99.90
6756;DHT22;3415;51.148;7.014;2022-09-01T14:40:22;25.50;99.90
6756;DHT22;3415;51.148;7.014;2022-09-01T14:42:51;25.50;99.90
6756;DHT22;3415;51.148;7.014;2022-09-01T14:45:20;25.80;99.90
6756;DHT22;3415;51.148;7.014;2022-09-01T14:47:50;26.10;99.90
6756;DHT22;3415;51.148;7.014;2022-09-01T14:50:19;26.20;99.90
6756;DHT22;3415;51.148;7.014;2022-09-01T14:52:46;26.50;99.90
6756;DHT22;3415;51.148;7.014;2022-09-01T14:55:14;26.60;99.90
6756;DHT22;3415;51.148;7.014;2022-09-01T14:57:41;26.40;99.90
6756;DHT22;3415;51.148;7.014;2022-09-01T15:00:11;26.30;99.90
6756;DHT22;3415;51.148;7.014;2022-09-01T15:02:41;26.20;99.90
6756;DHT22;3415;51.148;7.014;2022-09-01T15:05:10;26.30;99.90
6756;DHT22;3415;51.148;7.014;2022-09-01T15:07:38;26.40;99.90
6756;DHT22;3415;51.148;7.014;2022-09-01T15:10:06;26.80;99.90
6756;DHT22;3415;51.148;7.014;2022-09-01T15:12:34;26.90;99.90
6756;DHT22;3415;51.148;7.014;2022-09-01T15:15:04;27.00;99.90
6756;DHT22;3415;51.148;7.014;2022-09-01T15:17:33;27.10;99.90
6756;DHT22;3415;51.148;7.014;2022-09-01T15:20:00;27.10;99.90
6756;DHT22;3415;51.148;7.014;2022-09-01T15:22:42;27.00;99.90
6756;DHT22;3415;51.148;7.014;2022-09-01T15:25:09;27.00;99.90
6756;DHT22;3415;51.148;7.014;2022-09-01T15:27:36;27.00;99.90
6756;DHT22;3415;51.148;7.014;2022-09-01T15:30:03;27.00;99.90
6756;DHT22;3415;51.148;7.014;2022-09-01T15:32:39;26.90;99.90
6756;DHT22;3415;51.148;7.014;2022-09-01T15:35:06;26.60;99.90
6756;DHT22;3415;51.148;7.014;2022-09-01T15:37:33;26.30;99.90
6756;DHT22;3415;51.148;7.014;2022-09-01T15:40:02;26.20;99.90
6756;DHT22;3415;51.148;7.014;2022-09-01T15:42:29;26.10;99.90
6756;DHT22;3415;51.148;7.014;2022-09-01T15:44:56;26.10;99.90
6756;DHT22;3415;51.148;7.014;2022-09-01T15:47:23;26.10;99.90
6756;DHT22;3415;51.148;7.014;2022-09-01T15:49:50;25.80;99.90
6756;DHT22;3415;51.148;7.014;2022-09-01T15:52:17;25.70;99.90
6756;DHT22;3415;51.148;7.014;2022-09-01T15:54:45;25.70;99.90
6756;DHT22;3415;51.148;7.014;2022-09-01T15:57:13;25.70;99.90
6756;DHT22;3415;51.148;7.014;2022-09-01T15:59:40;25.70;99.90
6756;DHT22;3415;51.148;7.014;2022-09-01T16:02:08;25.30;99.90
6756;DHT22;3415;51.148;7.014;2022-09-01T16:04:35;25.30;99.90
6756;DHT22;3415;51.148;7.014;2022-09-01T16:07:02;25.00;99.90
6756;DHT22;3415;51.148;7.014;2022-09-01T16:09:29;24.90;99.90
6756;DHT22;3415;51.148;7.014;2022-09-01T16:11:57;24.80;99.90
6756;DHT22;3415;51.148;7.014;2022-09-01T16:14:25;24.70;99.90
6756;DHT22;3415;51.148;7.014;2022-09-01T16:16:56;24.70;99.90
6756;DHT22;3415;51.148;7.014;2022-09-01T16:19:33;24.70;99.90
6756;DHT22;3415;51.148;7.014;2022-09-01T16:22:10;24.50;99.90
6756;DHT22;3415;51.148;7.014;2022-09-01T16:24:41;24.40;99.90
6756;DHT22;3415;51.148;7.014;2022-09-01T16:27:14;24.30;99.90
6756;DHT22;3415;51.148;7.014;2022-09-01T16:29:47;24.10;99.90
6756;DHT22;3415;51.148;7.014;2022-09-01T16:32:15;24.10;99.90
6756;DHT22;3415;51.148;7.014;2022-09-01T16:34:44;23.80;99.90
6756;DHT22;3415;51.148;7.014;2022-09-01T16:37:23;23.80;99.90
6756;DHT22;3415;51.148;7.014;2022-09-01T16:39:59;23.50;99.90
6756;DHT22;3415;51.148;7.014;2022-09-01T16:42:32;23.50;99.90
6756;DHT22;3415;51.148;7.014;2022-09-01T16:45:11;23.20;99.90
6756;DHT22;3415;51.148;7.014;2022-09-01T16:47:45;22.90;99.90
6756;DHT22;3415;51.148;7.014;2022-09-01T16:50:26;22.60;99.90
6756;DHT22;3415;51.148;7.014;2022-09-01T16:53:09;22.30;99.90
6756;DHT22;3415;51.148;7.014;2022-09-01T16:55:47;22.30;99.90
6756;DHT22;3415;51.148;7.014;2022-09-01T16:58:24;22.10;99.90
6756;DHT22;3415;51.148;7.014;2022-09-01T17:01:02;22.00;99.90
6756;DHT22;3415;51.148;7.014;2022-09-01T17:03:35;22.00;99.90
6756;DHT22;3415;51.148;7.014;2022-09-01T17:06:09;21.80;99.90
6756;DHT22;3415;51.148;7.014;2022-09-01T17:08:45;21.80;99.90
6756;DHT22;3415;51.148;7.014;2022-09-01T17:11:23;21.80;99.90
6756;DHT22;3415;51.148;7.014;2022-09-01T17:13:52;21.80;99.90
6756;DHT22;3415;51.148;7.014;2022-09-01T17:16:29;21.70;99.90
6756;DHT22;3415;51.148;7.014;2022-09-01T17:19:05;21.80;99.90
6756;DHT22;3415;51.148;7.014;2022-09-01T17:21:35;21.40;99.90
6756;DHT22;3415;51.148;7.014;2022-09-01T17:24:09;21.20;99.90
6756;DHT22;3415;51.148;7.014;2022-09-01T17:26:41;21.20;99.90
6756;DHT22;3415;51.148;7.014;2022-09-01T17:29:18;21.20;99.90
6756;DHT22;3415;51.148;7.014;2022-09-01T17:31:55;21.20;99.90
6756;DHT22;3415;51.148;7.014;2022-09-01T17:34:34;21.10;99.90
6756;DHT22;3415;51.148;7.014;2022-09-01T17:37:14;21.10;99.90
6756;DHT22;3415;51.148;7.014;2022-09-01T17:39:55;21.00;99.90
6756;DHT22;3415;51.148;7.014;2022-09-01T17:42:29;21.00;99.90
6756;DHT22;3415;51.148;7.014;2022-09-01T17:45:04;21.10;99.90
6756;DHT22;3415;51.148;7.014;2022-09-01T17:47:51;21.10;99.90
6756;DHT22;3415;51.148;7.014;2022-09-01T17:50:21;21.10;99.90
6756;DHT22;3415;51.148;7.014;2022-09-01T17:52:56;21.00;99.90
6756;DHT22;3415;51.148;7.014;2022-09-01T17:55:35;20.90;99.90
6756;DHT22;3415;51.148;7.014;2022-09-01T17:58:11;20.70;99.90
6756;DHT22;3415;51.148;7.014;2022-09-01T18:00:46;20.60;99.90
6756;DHT22;3415;51.148;7.014;2022-09-01T18:03:28;20.60;99.90
6756;DHT22;3415;51.148;7.014;2022-09-01T18:06:01;20.50;99.90
6756;DHT22;3415;51.148;7.014;2022-09-01T18:08:35;20.50;99.90
6756;DHT22;3415;51.148;7.014;2022-09-01T18:11:06;20.20;99.90
6756;DHT22;3415;51.148;7.014;2022-09-01T18:13:39;20.20;99.90
6756;DHT22;3415;51.148;7.014;2022-09-01T18:16:11;20.10;99.90
6756;DHT22;3415;51.148;7.014;2022-09-01T18:18:41;20.10;99.90
6756;DHT22;3415;51.148;7.014;2022-09-01T18:21:12;20.00;99.90
6756;DHT22;3415;51.148;7.014;2022-09-01T18:23:41;20.00;99.90
6756;DHT22;3415;51.148;7.014;2022-09-01T18:26:16;19.90;99.90
6756;DHT22;3415;51.148;7.014;2022-09-01T18:28:44;19.90;99.90
6756;DHT22;3415;51.148;7.014;2022-09-01T18:31:27;19.80;99.90
6756;DHT22;3415;51.148;7.014;2022-09-01T18:34:07;19.60;99.90
6756;DHT22;3415;51.148;7.014;2022-09-01T18:36:46;19.60;99.90
6756;DHT22;3415;51.148;7.014;2022-09-01T18:39:17;19.50;99.90
6756;DHT22;3415;51.148;7.014;2022-09-01T18:41:57;19.50;99.90
6756;DHT22;3415;51.148;7.014;2022-09-01T18:44:38;19.30;99.90
6756;DHT22;3415;51.148;7.014;2022-09-01T18:47:11;19.20;99.90
6756;DHT22;3415;51.148;7.014;2022-09-01T18:49:46;19.20;99.90
6756;DHT22;3415;51.148;7.014;2022-09-01T18:52:24;19.00;99.90
6756;DHT22;3415;51.148;7.014;2022-09-01T18:54:57;18.90;99.90
6756;DHT22;3415;51.148;7.014;2022-09-01T18:57:34;18.80;99.90
6756;DHT22;3415;51.148;7.014;2022-09-01T19:00:10;18.80;99.90
6756;DHT22;3415;51.148;7.014;2022-09-01T19:05:43;18.70;99.90
6756;DHT22;3415;51.148;7.014;2022-09-01T19:08:20;18.60;99.90
6756;DHT22;3415;51.148;7.014;2022-09-01T19:10:53;18.50;99.90
6756;DHT22;3415;51.148;7.014;2022-09-01T19:13:31;18.40;99.90
6756;DHT22;3415;51.148;7.014;2022-09-01T19:16:05;18.40;99.90
6756;DHT22;3415;51.148;7.014;2022-09-01T19:18:41;18.20;99.90
6756;DHT22;3415;51.148;7.014;2022-09-01T19:21:16;18.40;99.90
6756;DHT22;3415;51.148;7.014;2022-09-01T19:23:49;18.40;99.90
6756;DHT22;3415;51.148;7.014;2022-09-01T19:26:24;18.70;99.90
6756;DHT22;3415;51.148;7.014;2022-09-01T19:28:57;18.90;99.90
6756;DHT22;3415;51.148;7.014;2022-09-01T19:31:26;19.10;99.90
6756;DHT22;3415;51.148;7.014;2022-09-01T19:33:55;19.20;99.90
6756;DHT22;3415;51.148;7.014;2022-09-01T19:36:28;19.30;99.90
6756;DHT22;3415;51.148;7.014;2022-09-01T19:38:57;19.30;99.90
6756;DHT22;3415;51.148;7.014;2022-09-01T19:41:27;19.40;99.90
6756;DHT22;3415;51.148;7.014;2022-09-01T19:44:02;19.40;99.90
6756;DHT22;3415;51.148;7.014;2022-09-01T19:46:39;19.40;99.90
6756;DHT22;3415;51.148;7.014;2022-09-01T19:49:16;19.50;99.90
6756;DHT22;3415;51.148;7.014;2022-09-01T19:51:52;19.50;99.90
6756;DHT22;3415;51.148;7.014;2022-09-01T19:54:25;19.50;99.90
6756;DHT22;3415;51.148;7.014;2022-09-01T19:56:57;19.40;99.90
6756;DHT22;3415;51.148;7.014;2022-09-01T19:59:41;19.40;99.90
6756;DHT22;3415;51.148;7.014;2022-09-01T20:02:16;19.40;99.90
6756;DHT22;3415;51.148;7.014;2022-09-01T20:04:50;19.40;99.90
6756;DHT22;3415;51.148;7.014;2022-09-01T20:07:25;19.60;99.90
6756;DHT22;3415;51.148;7.014;2022-09-01T20:09:59;19.40;99.90
6756;DHT22;3415;51.148;7.014;2022-09-01T20:12:32;19.40;99.90
6756;DHT22;3415;51.148;7.014;2022-09-01T20:15:10;19.30;99.90
6756;DHT22;3415;51.148;7.014;2022-09-01T20:17:42;19.20;99.90
6756;DHT22;3415;51.148;7.014;2022-09-01T20:20:15;19.40;99.90
6756;DHT22;3415;51.148;7.014;2022-09-01T20:22:54;19.20;99.90
6756;DHT22;3415;51.148;7.014;2022-09-01T20:25:26;19.20;99.90
6756;DHT22;3415;51.148;7.014;2022-09-01T20:27:59;19.20;99.90
6756;DHT22;3415;51.148;7.014;2022-09-01T20:30:29;19.20;99.90
6756;DHT22;3415;51.148;7.014;2022-09-01T20:33:03;19.10;99.90
6756;DHT22;3415;51.148;7.014;2022-09-01T20:35:39;19.10;99.90
6756;DHT22;3415;51.148;7.014;2022-09-01T20:38:14;19.10;99.90
6756;DHT22;3415;51.148;7.014;2022-09-01T20:41:01;19.00;99.90
6756;DHT22;3415;51.148;7.014;2022-09-01T20:43:34;19.00;99.90
6756;DHT22;3415;51.148;7.014;2022-09-01T20:46:03;19.00;99.90
6756;DHT22;3415;51.148;7.014;2022-09-01T20:48:36;19.00;99.90
6756;DHT22;3415;51.148;7.014;2022-09-01T20:51:08;18.90;99.90
6756;DHT22;3415;51.148;7.014;2022-09-01T20:54:00;18.90;99.90
6756;DHT22;3415;51.148;7.014;2022-09-01T20:56:38;18.90;99.90
6756;DHT22;3415;51.148;7.014;2022-09-01T21:17:25;18.80;99.90
6756;DHT22;3415;51.148;7.014;2022-09-01T21:20:05;18.70;99.90
6756;DHT22;3415;51.148;7.014;2022-09-01T21:22:34;18.70;99.90
6756;DHT22;3415;51.148;7.014;2022-09-01T21:25:01;18.70;99.90
6756;DHT22;3415;51.148;7.014;2022-09-01T21:27:32;18.70;99.90
6756;DHT22;3415;51.148;7.014;2022-09-01T21:30:05;18.70;99.90
6756;DHT22;3415;51.148;7.014;2022-09-01T21:32:35;18.70;99.90
6756;DHT22;3415;51.148;7.014;2022-09-01T21:35:04;18.60;99.90
6756;DHT22;3415;51.148;7.014;2022-09-01T21:37:31;18.60;99.90
6756;DHT22;3415;51.148;7.014;2022-09-01T21:39:58;18.60;99.90
6756;DHT22;3415;51.148;7.014;2022-09-01T21:42:28;18.60;99.90
6756;DHT22;3415;51.148;7.014;2022-09-01T21:44:55;18.50;99.90
6756;DHT22;3415;51.148;7.014;2022-09-01T21:47:25;18.50;99.90
6756;DHT22;3415;51.148;7.014;2022-09-01T21:49:54;18.50;99.90
6756;DHT22;3415;51.148;7.014;2022-09-01T21:52:21;18.50;99.90
6756;DHT22;3415;51.148;7.014;2022-09-01T21:54:48;18.50;99.90
